sensor_id;sensor_type;location;lat;lon;timestamp;pressure;altitude;pressure_sealevel;temperature;humidity
23619;BME280;18207;32.078;34.818;2024-02-26T00:01:20;101072.13;;;22.85;45.45
23619;BME280;18207;32.078;34.818;2024-02-26T00:03:50;101070.19;;;22.85;45.09
23619;BME280;18207;32.078;34.818;2024-02-26T00:06:20;101064.91;;;22.84;45.33
23619;BME280;18207;32.078;34.818;2024-02-26T00:08:50;101070.50;;;22.84;45.42
23619;BME280;18207;32.078;34.818;2024-02-26T00:11:20;101070.50;;;22.84;45.43
23619;BME280;18207;32.078;34.818;2024-02-26T00:13:50;101066.06;;;22.83;45.52
23619;BME280;18207;32.078;34.818;2024-02-26T00:16:21;101059.66;;;22.82;45.43
23619;BME280;18207;32.078;34.818;2024-02-26T00:18:51;101061.59;;;22.82;45.27
23619;BME280;18207;32.078;34.818;2024-02-26T00:21:21;101056.00;;;22.82;45.69
23619;BME280;18207;32.078;34.818;2024-02-26T00:23:53;101061.59;;;22.82;45.46
23619;BME280;18207;32.078;34.818;2024-02-26T00:26:23;101054.38;;;22.81;45.44
23619;BME280;18207;32.078;34.818;2024-02-26T00:28:53;101036.75;;;22.80;45.30
23619;BME280;18207;32.078;34.818;2024-02-26T00:31:25;101039.91;;;22.79;45.33
23619;BME280;18207;32.078;34.818;2024-02-26T00:33:55;101034.63;;;22.77;45.25
23619;BME280;18207;32.078;34.818;2024-02-26T00:36:25;101026.22;;;22.77;45.23
23619;BME280;18207;32.078;34.818;2024-02-26T00:38:55;101021.75;;;22.76;45.48
23619;BME280;18207;32.078;34.818;2024-02-26T00:41:25;101020.16;;;22.75;45.40
23619;BME280;18207;32.078;34.818;2024-02-26T00:43:55;101012.06;;;22.74;45.50
23619;BME280;18207;32.078;34.818;2024-02-26T00:46:27;101002.38;;;22.71;45.45
23619;BME280;18207;32.078;34.818;2024-02-26T00:48:57;101000.59;;;22.67;45.29
23619;BME280;18207;32.078;34.818;2024-02-26T00:51:26;101002.81;;;22.61;45.31
23619;BME280;18207;32.078;34.818;2024-02-26T00:53:56;100997.44;;;22.56;45.26
23619;BME280;18207;32.078;34.818;2024-02-26T00:56:27;101008.34;;;22.49;45.07
23619;BME280;18207;32.078;34.818;2024-02-26T00:58:56;101003.28;;;22.43;44.97
23619;BME280;18207;32.078;34.818;2024-02-26T01:01:28;101002.22;;;22.36;44.86
23619;BME280;18207;32.078;34.818;2024-02-26T01:03:58;100995.81;;;22.27;44.93
23619;BME280;18207;32.078;34.818;2024-02-26T01:06:28;100985.16;;;22.20;45.16
23619;BME280;18207;32.078;34.818;2024-02-26T01:08:58;100980.91;;;22.14;44.84
23619;BME280;18207;32.078;34.818;2024-02-26T01:11:28;100987.22;;;22.11;45.17
23619;BME280;18207;32.078;34.818;2024-02-26T01:13:58;100982.28;;;22.08;45.04
23619;BME280;18207;32.078;34.818;2024-02-26T01:16:30;100977.34;;;22.05;44.83
23619;BME280;18207;32.078;34.818;2024-02-26T01:18:59;100969.97;;;22.01;44.99
23619;BME280;18207;32.078;34.818;2024-02-26T01:21:29;100966.69;;;21.99;45.51
23619;BME280;18207;32.078;34.818;2024-02-26T01:24:00;100977.09;;;21.98;45.25
23619;BME280;18207;32.078;34.818;2024-02-26T01:26:30;100970.34;;;21.99;45.00
23619;BME280;18207;32.078;34.818;2024-02-26T01:28:59;100978.72;;;21.99;45.21
23619;BME280;18207;32.078;34.818;2024-02-26T01:31:31;100988.41;;;22.02;45.35
23619;BME280;18207;32.078;34.818;2024-02-26T01:34:01;100996.81;;;22.02;45.07
23619;BME280;18207;32.078;34.818;2024-02-26T01:36:31;101000.09;;;22.04;45.02
23619;BME280;18207;32.078;34.818;2024-02-26T01:39:02;101004.19;;;22.06;45.35
23619;BME280;18207;32.078;34.818;2024-02-26T01:41:32;101001.38;;;22.06;45.15
23619;BME280;18207;32.078;34.818;2024-02-26T01:44:02;100992.66;;;22.08;45.26
23619;BME280;18207;32.078;34.818;2024-02-26T01:46:34;100990.34;;;22.10;45.13
23619;BME280;18207;32.078;34.818;2024-02-26T01:49:05;101000.72;;;22.09;45.04
23619;BME280;18207;32.078;34.818;2024-02-26T01:51:37;101007.13;;;22.10;45.00
23619;BME280;18207;32.078;34.818;2024-02-26T01:54:09;101010.75;;;22.10;45.13
23619;BME280;18207;32.078;34.818;2024-02-26T01:56:41;101011.56;;;22.11;45.07
23619;BME280;18207;32.078;34.818;2024-02-26T01:59:11;101011.56;;;22.11;45.05
23619;BME280;18207;32.078;34.818;2024-02-26T02:01:45;101000.38;;;22.11;44.86
23619;BME280;18207;32.078;34.818;2024-02-26T02:04:18;100991.16;;;22.10;45.14
23619;BME280;18207;32.078;34.818;2024-02-26T02:06:48;100977.97;;;22.11;45.24
23619;BME280;18207;32.078;34.818;2024-02-26T02:09:18;100965.13;;;22.10;45.10
23619;BME280;18207;32.078;34.818;2024-02-26T02:11:49;100952.31;;;22.09;44.74
23619;BME280;18207;32.078;34.818;2024-02-26T02:14:19;100943.44;;;22.07;45.07
23619;BME280;18207;32.078;34.818;2024-02-26T02:16:51;100960.06;;;22.03;44.93
23619;BME280;18207;32.078;34.818;2024-02-26T02:19:20;100973.63;;;22.01;44.76
23619;BME280;18207;32.078;34.818;2024-02-26T02:21:52;100968.34;;;22.00;44.95
23619;BME280;18207;32.078;34.818;2024-02-26T02:24:22;100963.09;;;21.98;44.82
23619;BME280;18207;32.078;34.818;2024-02-26T02:26:53;100960.28;;;21.98;44.68
23619;BME280;18207;32.078;34.818;2024-02-26T02:29:23;100960.28;;;21.98;44.93
23619;BME280;18207;32.078;34.818;2024-02-26T02:31:53;100951.53;;;22.00;44.78
23619;BME280;18207;32.078;34.818;2024-02-26T02:34:24;100938.72;;;21.99;45.03
23619;BME280;18207;32.078;34.818;2024-02-26T02:36:55;100945.16;;;21.99;45.11
23619;BME280;18207;32.078;34.818;2024-02-26T02:39:25;100937.56;;;22.00;44.87
23619;BME280;18207;32.078;34.818;2024-02-26T02:41:55;100936.75;;;21.99;44.65
23619;BME280;18207;32.078;34.818;2024-02-26T02:44:25;100933.94;;;21.99;44.90
23619;BME280;18207;32.078;34.818;2024-02-26T02:46:55;100931.97;;;22.00;44.93
23619;BME280;18207;32.078;34.818;2024-02-26T02:49:25;100936.75;;;21.99;44.79
23619;BME280;18207;32.078;34.818;2024-02-26T02:51:56;100931.16;;;21.99;44.95
23619;BME280;18207;32.078;34.818;2024-02-26T02:54:27;100935.09;;;21.98;44.92
23619;BME280;18207;32.078;34.818;2024-02-26T02:56:57;100927.88;;;21.97;45.04
23619;BME280;18207;32.078;34.818;2024-02-26T02:59:27;100929.50;;;21.98;44.97
23619;BME280;18207;32.078;34.818;2024-02-26T03:01:57;100931.47;;;21.98;44.46
23619;BME280;18207;32.078;34.818;2024-02-26T03:04:26;100935.09;;;21.98;44.77
23619;BME280;18207;32.078;34.818;2024-02-26T03:06:59;100935.47;;;21.97;44.63
23619;BME280;18207;32.078;34.818;2024-02-26T03:09:29;100934.97;;;21.95;44.57
23619;BME280;18207;32.078;34.818;2024-02-26T03:11:59;100940.09;;;21.93;44.65
23619;BME280;18207;32.078;34.818;2024-02-26T03:14:29;100940.09;;;21.93;45.02
23619;BME280;18207;32.078;34.818;2024-02-26T03:16:59;100936.47;;;21.92;44.70
23619;BME280;18207;32.078;34.818;2024-02-26T03:19:29;100932.03;;;21.91;44.75
23619;BME280;18207;32.078;34.818;2024-02-26T03:22:01;100933.69;;;21.92;44.44
23619;BME280;18207;32.078;34.818;2024-02-26T03:24:31;100924.44;;;21.92;44.70
23619;BME280;18207;32.078;34.818;2024-02-26T03:27:01;100926.44;;;21.91;44.45
23619;BME280;18207;32.078;34.818;2024-02-26T03:29:33;100918.06;;;21.91;44.65
23619;BME280;18207;32.078;34.818;2024-02-26T03:32:03;100918.84;;;21.92;44.78
23619;BME280;18207;32.078;34.818;2024-02-26T03:34:33;100916.41;;;21.90;44.47
23619;BME280;18207;32.078;34.818;2024-02-26T03:37:05;100920.84;;;21.91;44.74
23619;BME280;18207;32.078;34.818;2024-02-26T03:39:37;100921.16;;;21.90;44.74
23619;BME280;18207;32.078;34.818;2024-02-26T03:42:07;100919.53;;;21.89;44.60
23619;BME280;18207;32.078;34.818;2024-02-26T03:44:37;100929.09;;;21.88;44.49
23619;BME280;18207;32.078;34.818;2024-02-26T03:47:07;100929.09;;;21.88;44.94
23619;BME280;18207;32.078;34.818;2024-02-26T03:49:36;100921.03;;;21.86;44.65
23619;BME280;18207;32.078;34.818;2024-02-26T03:52:09;100928.63;;;21.86;44.41
23619;BME280;18207;32.078;34.818;2024-02-26T03:54:39;100931.41;;;21.86;44.46
23619;BME280;18207;32.078;34.818;2024-02-26T03:57:09;100933.72;;;21.84;44.44
23619;BME280;18207;32.078;34.818;2024-02-26T03:59:39;100938.50;;;21.83;44.45
23619;BME280;18207;32.078;34.818;2024-02-26T04:02:09;100941.63;;;21.82;44.41
23619;BME280;18207;32.078;34.818;2024-02-26T04:04:39;100938.03;;;21.81;44.74
23619;BME280;18207;32.078;34.818;2024-02-26T04:07:10;100941.16;;;21.80;44.35
23619;BME280;18207;32.078;34.818;2024-02-26T04:09:41;100948.75;;;21.79;44.72
23619;BME280;18207;32.078;34.818;2024-02-26T04:12:11;100949.91;;;21.78;44.39
23619;BME280;18207;32.078;34.818;2024-02-26T04:14:41;100954.69;;;21.78;44.64
23619;BME280;18207;32.078;34.818;2024-02-26T04:17:11;100952.19;;;21.76;44.44
23619;BME280;18207;32.078;34.818;2024-02-26T04:19:41;100957.00;;;21.76;44.26
23619;BME280;18207;32.078;34.818;2024-02-26T04:22:13;100956.16;;;21.75;44.12
23619;BME280;18207;32.078;34.818;2024-02-26T04:24:43;100958.47;;;21.73;44.33
23619;BME280;18207;32.078;34.818;2024-02-26T04:27:12;100961.25;;;21.73;44.21
23619;BME280;18207;32.078;34.818;2024-02-26T04:29:42;100961.63;;;21.72;44.26
23619;BME280;18207;32.078;34.818;2024-02-26T04:32:12;100964.41;;;21.72;44.41
23619;BME280;18207;32.078;34.818;2024-02-26T04:34:41;100959.16;;;21.70;44.46
23619;BME280;18207;32.078;34.818;2024-02-26T04:37:13;100973.97;;;21.71;44.43
23619;BME280;18207;32.078;34.818;2024-02-26T04:39:43;100980.72;;;21.70;44.47
23619;BME280;18207;32.078;34.818;2024-02-26T04:42:17;100967.06;;;21.68;44.34
23619;BME280;18207;32.078;34.818;2024-02-26T04:44:47;100973.81;;;21.67;44.52
23619;BME280;18207;32.078;34.818;2024-02-26T04:47:18;100974.66;;;21.68;44.14
23619;BME280;18207;32.078;34.818;2024-02-26T04:49:48;100971.03;;;21.67;44.60
23619;BME280;18207;32.078;34.818;2024-02-26T04:52:21;100971.84;;;21.68;44.25
23619;BME280;18207;32.078;34.818;2024-02-26T04:54:51;100978.75;;;21.70;44.29
23619;BME280;18207;32.078;34.818;2024-02-26T04:57:21;100986.78;;;21.72;44.45
23619;BME280;18207;32.078;34.818;2024-02-26T04:59:51;100984.47;;;21.74;44.48
23619;BME280;18207;32.078;34.818;2024-02-26T05:02:21;100984.13;;;21.75;44.38
23619;BME280;18207;32.078;34.818;2024-02-26T05:04:50;100987.06;;;21.79;44.07
23619;BME280;18207;32.078;34.818;2024-02-26T05:07:22;100991.19;;;21.81;44.63
23619;BME280;18207;32.078;34.818;2024-02-26T05:09:52;100995.28;;;21.84;44.00
23619;BME280;18207;32.078;34.818;2024-02-26T05:12:21;100989.81;;;21.87;44.18
23619;BME280;18207;32.078;34.818;2024-02-26T05:14:51;100983.56;;;21.90;43.96
23619;BME280;18207;32.078;34.818;2024-02-26T05:17:21;100992.09;;;21.94;44.34
23619;BME280;18207;32.078;34.818;2024-02-26T05:19:53;100986.63;;;21.97;44.32
23619;BME280;18207;32.078;34.818;2024-02-26T05:22:24;100993.22;;;22.01;44.08
23619;BME280;18207;32.078;34.818;2024-02-26T05:24:54;100979.34;;;22.05;43.84
23619;BME280;18207;32.078;34.818;2024-02-26T05:27:24;100978.31;;;22.09;43.84
23619;BME280;18207;32.078;34.818;2024-02-26T05:29:54;100975.66;;;22.13;44.27
23619;BME280;18207;32.078;34.818;2024-02-26T05:32:24;100984.19;;;22.16;44.40
23619;BME280;18207;32.078;34.818;2024-02-26T05:34:54;100974.78;;;22.21;44.07
23619;BME280;18207;32.078;34.818;2024-02-26T05:37:25;100982.16;;;22.25;43.78
23619;BME280;18207;32.078;34.818;2024-02-26T05:39:55;100980.31;;;22.29;44.11
23619;BME280;18207;32.078;34.818;2024-02-26T05:42:26;100985.72;;;22.34;43.96
23619;BME280;18207;32.078;34.818;2024-02-26T05:44:56;100983.91;;;22.38;43.97
23619;BME280;18207;32.078;34.818;2024-02-26T05:47:25;100989.28;;;22.43;44.04
23619;BME280;18207;32.078;34.818;2024-02-26T05:49:55;100977.03;;;22.47;44.08
23619;BME280;18207;32.078;34.818;2024-02-26T05:52:29;100978.00;;;22.51;44.05
23619;BME280;18207;32.078;34.818;2024-02-26T05:54:59;100979.78;;;22.56;44.20
23619;BME280;18207;32.078;34.818;2024-02-26T05:57:29;100982.72;;;22.59;43.77
23619;BME280;18207;32.078;34.818;2024-02-26T05:59:59;100984.47;;;22.64;44.24
23619;BME280;18207;32.078;34.818;2024-02-26T06:02:32;100985.44;;;22.68;44.07
23619;BME280;18207;32.078;34.818;2024-02-26T06:05:01;100994.78;;;22.72;43.78
23619;BME280;18207;32.078;34.818;2024-02-26T06:07:33;101000.53;;;22.75;43.89
23619;BME280;18207;32.078;34.818;2024-02-26T06:10:04;101005.09;;;22.80;43.71
23619;BME280;18207;32.078;34.818;2024-02-26T06:12:36;100994.84;;;22.84;43.78
23619;BME280;18207;32.078;34.818;2024-02-26T06:15:07;100988.19;;;22.88;43.87
23619;BME280;18207;32.078;34.818;2024-02-26T06:17:37;100999.19;;;22.93;43.82
23619;BME280;18207;32.078;34.818;2024-02-26T06:20:08;101003.41;;;22.99;43.74
23619;BME280;18207;32.078;34.818;2024-02-26T06:22:43;101004.88;;;23.05;43.90
23619;BME280;18207;32.078;34.818;2024-02-26T06:25:13;101019.81;;;23.09;43.59
23619;BME280;18207;32.078;34.818;2024-02-26T06:27:43;101008.41;;;23.14;43.70
23619;BME280;18207;32.078;34.818;2024-02-26T06:30:13;101005.38;;;23.19;43.78
23619;BME280;18207;32.078;34.818;2024-02-26T06:32:43;101005.16;;;23.24;43.80
23619;BME280;18207;32.078;34.818;2024-02-26T06:35:13;101004.56;;;23.30;43.54
23619;BME280;18207;32.078;34.818;2024-02-26T06:37:45;100989.16;;;23.36;43.52
23619;BME280;18207;32.078;34.818;2024-02-26T06:40:14;100993.03;;;23.44;43.41
23619;BME280;18207;32.078;34.818;2024-02-26T06:42:44;100989.63;;;23.50;43.47
23619;BME280;18207;32.078;34.818;2024-02-26T06:45:16;100985.94;;;23.58;43.58
23619;BME280;18207;32.078;34.818;2024-02-26T06:47:46;100984.16;;;23.66;43.65
23619;BME280;18207;32.078;34.818;2024-02-26T06:50:16;100982.75;;;23.72;43.39
23619;BME280;18207;32.078;34.818;2024-02-26T06:52:48;100981.38;;;23.78;43.25
23619;BME280;18207;32.078;34.818;2024-02-26T06:55:18;100978.78;;;23.85;43.29
23619;BME280;18207;32.078;34.818;2024-02-26T06:57:48;100980.53;;;23.89;42.94
23619;BME280;18207;32.078;34.818;2024-02-26T07:00:18;100971.91;;;23.94;43.47
23619;BME280;18207;32.078;34.818;2024-02-26T07:02:48;100977.25;;;23.99;42.92
23619;BME280;18207;32.078;34.818;2024-02-26T07:05:17;100969.41;;;24.05;43.21
23619;BME280;18207;32.078;34.818;2024-02-26T07:07:49;100975.59;;;24.10;43.12
23619;BME280;18207;32.078;34.818;2024-02-26T07:10:19;100984.59;;;24.16;43.05
23619;BME280;18207;32.078;34.818;2024-02-26T07:12:49;100974.31;;;24.19;42.89
23619;BME280;18207;32.078;34.818;2024-02-26T07:15:19;100971.25;;;24.24;43.09
23619;BME280;18207;32.078;34.818;2024-02-26T07:17:49;100975.47;;;24.30;42.93
23619;BME280;18207;32.078;34.818;2024-02-26T07:20:19;100959.19;;;24.36;43.09
23619;BME280;18207;32.078;34.818;2024-02-26T07:22:51;100962.19;;;24.43;42.94
23619;BME280;18207;32.078;34.818;2024-02-26T07:25:21;100957.16;;;24.48;42.95
23619;BME280;18207;32.078;34.818;2024-02-26T07:27:53;100957.38;;;24.55;42.85
23619;BME280;18207;32.078;34.818;2024-02-26T07:30:22;100956.75;;;24.62;42.67
23619;BME280;18207;32.078;34.818;2024-02-26T07:32:52;100957.78;;;24.69;42.83
23619;BME280;18207;32.078;34.818;2024-02-26T07:35:22;100952.34;;;24.76;42.72
23619;BME280;18207;32.078;34.818;2024-02-26T07:37:55;100954.91;;;24.81;42.64
23619;BME280;18207;32.078;34.818;2024-02-26T07:40:24;100944.66;;;24.89;42.45
23619;BME280;18207;32.078;34.818;2024-02-26T07:42:54;100952.84;;;24.94;42.71
23619;BME280;18207;32.078;34.818;2024-02-26T07:45:24;100960.22;;;24.98;42.38
23619;BME280;18207;32.078;34.818;2024-02-26T07:47:54;100950.31;;;25.04;42.52
23619;BME280;18207;32.078;34.818;2024-02-26T07:50:24;100950.88;;;25.09;42.67
23619;BME280;18207;32.078;34.818;2024-02-26T07:52:56;100961.53;;;25.16;42.57
23619;BME280;18207;32.078;34.818;2024-02-26T07:55:26;100955.28;;;25.22;42.51
23619;BME280;18207;32.078;34.818;2024-02-26T07:57:56;100949.03;;;25.29;42.43
23619;BME280;18207;32.078;34.818;2024-02-26T08:00:25;100953.66;;;25.37;42.40
23619;BME280;18207;32.078;34.818;2024-02-26T08:02:55;100957.81;;;25.43;42.49
23619;BME280;18207;32.078;34.818;2024-02-26T08:05:25;100954.75;;;25.48;42.40
23619;BME280;18207;32.078;34.818;2024-02-26T08:08:06;100951.28;;;25.54;42.32
23619;BME280;18207;32.078;34.818;2024-02-26T08:10:36;100955.00;;;25.58;42.07
23619;BME280;18207;32.078;34.818;2024-02-26T08:13:05;100955.91;;;25.62;42.39
23619;BME280;18207;32.078;34.818;2024-02-26T08:15:36;100962.09;;;25.68;42.08
23619;BME280;18207;32.078;34.818;2024-02-26T08:18:06;100957.00;;;25.73;41.97
23619;BME280;18207;32.078;34.818;2024-02-26T08:20:36;100954.75;;;25.79;42.09
23619;BME280;18207;32.078;34.818;2024-02-26T08:23:08;100950.47;;;25.85;42.06
23619;BME280;18207;32.078;34.818;2024-02-26T08:25:38;100947.34;;;25.90;41.85
23619;BME280;18207;32.078;34.818;2024-02-26T08:28:08;100939.09;;;25.97;41.76
23619;BME280;18207;32.078;34.818;2024-02-26T08:30:39;100942.44;;;26.02;41.81
23619;BME280;18207;32.078;34.818;2024-02-26T08:33:08;100942.19;;;26.10;41.77
23619;BME280;18207;32.078;34.818;2024-02-26T08:35:38;100938.38;;;26.18;41.47
23619;BME280;18207;32.078;34.818;2024-02-26T08:38:10;100936.16;;;26.27;41.50
23619;BME280;18207;32.078;34.818;2024-02-26T08:40:39;100939.94;;;26.35;41.64
23619;BME280;18207;32.078;34.818;2024-02-26T08:43:09;100939.75;;;26.43;41.58
23619;BME280;18207;32.078;34.818;2024-02-26T08:45:39;100938.34;;;26.53;41.59
23619;BME280;18207;32.078;34.818;2024-02-26T08:48:09;100928.03;;;26.60;41.35
23619;BME280;18207;32.078;34.818;2024-02-26T08:50:39;100932.19;;;26.66;41.25
23619;BME280;18207;32.078;34.818;2024-02-26T08:53:10;100926.69;;;26.73;41.20
23619;BME280;18207;32.078;34.818;2024-02-26T08:55:40;100926.00;;;26.80;40.96
23619;BME280;18207;32.078;34.818;2024-02-26T08:58:10;100928.16;;;26.86;41.01
23619;BME280;18207;32.078;34.818;2024-02-26T09:00:40;100922.19;;;26.91;40.88
23619;BME280;18207;32.078;34.818;2024-02-26T09:03:10;100915.06;;;26.97;41.09
23619;BME280;18207;32.078;34.818;2024-02-26T09:05:40;100905.13;;;27.03;41.00
23619;BME280;18207;32.078;34.818;2024-02-26T09:08:12;100913.28;;;27.08;40.94
23619;BME280;18207;32.078;34.818;2024-02-26T09:10:44;100917.44;;;27.14;40.82
23619;BME280;18207;32.078;34.818;2024-02-26T09:13:14;100910.66;;;27.18;40.64
23619;BME280;18207;32.078;34.818;2024-02-26T09:15:44;100903.03;;;27.22;40.74
23619;BME280;18207;32.078;34.818;2024-02-26T09:18:14;100906.31;;;27.24;40.57
23619;BME280;18207;32.078;34.818;2024-02-26T09:20:44;100901.13;;;27.26;40.54
23619;BME280;18207;32.078;34.818;2024-02-26T09:23:16;100899.91;;;27.27;40.32
23619;BME280;18207;32.078;34.818;2024-02-26T09:25:46;100892.66;;;27.26;40.46
23619;BME280;18207;32.078;34.818;2024-02-26T09:28:17;100891.84;;;27.26;40.24
23619;BME280;18207;32.078;34.818;2024-02-26T09:30:47;100878.91;;;27.25;40.24
23619;BME280;18207;32.078;34.818;2024-02-26T09:33:18;100880.91;;;27.24;40.16
23619;BME280;18207;32.078;34.818;2024-02-26T09:35:49;100874.81;;;27.22;40.19
23619;BME280;18207;32.078;34.818;2024-02-26T09:38:21;100874.47;;;27.24;40.26
23619;BME280;18207;32.078;34.818;2024-02-26T09:40:51;100873.63;;;27.23;40.22
23619;BME280;18207;32.078;34.818;2024-02-26T09:43:22;100865.16;;;27.23;40.32
23619;BME280;18207;32.078;34.818;2024-02-26T09:45:54;100852.69;;;27.24;40.12
23619;BME280;18207;32.078;34.818;2024-02-26T09:48:24;100857.13;;;27.25;39.90
23619;BME280;18207;32.078;34.818;2024-02-26T09:50:54;100851.94;;;27.27;40.08
23619;BME280;18207;32.078;34.818;2024-02-26T09:53:29;100848.78;;;27.32;40.02
23619;BME280;18207;32.078;34.818;2024-02-26T09:55:59;100839.56;;;27.35;39.68
23619;BME280;18207;32.078;34.818;2024-02-26T09:58:30;100844.91;;;27.40;39.79
23619;BME280;18207;32.078;34.818;2024-02-26T10:01:03;100843.31;;;27.43;39.42
23619;BME280;18207;32.078;34.818;2024-02-26T10:03:41;100857.03;;;27.44;39.59
23619;BME280;18207;32.078;34.818;2024-02-26T10:06:12;100838.03;;;27.41;39.35
23619;BME280;18207;32.078;34.818;2024-02-26T10:08:45;100835.22;;;27.41;39.32
23619;BME280;18207;32.078;34.818;2024-02-26T10:11:18;100837.63;;;27.39;39.08
23619;BME280;18207;32.078;34.818;2024-02-26T10:13:51;100832.34;;;27.38;39.09
23619;BME280;18207;32.078;34.818;2024-02-26T10:16:24;100829.47;;;27.34;39.36
23619;BME280;18207;32.078;34.818;2024-02-26T10:18:55;100821.38;;;27.33;39.32
23619;BME280;18207;32.078;34.818;2024-02-26T10:21:28;100816.13;;;27.31;39.20
23619;BME280;18207;32.078;34.818;2024-02-26T10:24:00;100816.50;;;27.30;39.08
23619;BME280;18207;32.078;34.818;2024-02-26T10:26:31;100814.41;;;27.27;39.07
23619;BME280;18207;32.078;34.818;2024-02-26T10:29:03;100805.53;;;27.25;38.74
23619;BME280;18207;32.078;34.818;2024-02-26T10:31:36;100809.91;;;27.22;38.99
23619;BME280;18207;32.078;34.818;2024-02-26T10:34:12;100798.22;;;27.20;38.67
23619;BME280;18207;32.078;34.818;2024-02-26T10:36:51;100799.41;;;27.19;39.13
23619;BME280;18207;32.078;34.818;2024-02-26T10:39:32;100789.66;;;27.17;39.09
23619;BME280;18207;32.078;34.818;2024-02-26T10:42:06;100790.44;;;27.14;38.94
23619;BME280;18207;32.078;34.818;2024-02-26T10:44:46;100782.34;;;27.12;39.14
23619;BME280;18207;32.078;34.818;2024-02-26T10:47:21;100775.44;;;27.10;39.08
23619;BME280;18207;32.078;34.818;2024-02-26T10:49:57;100775.00;;;27.08;39.15
23619;BME280;18207;32.078;34.818;2024-02-26T10:52:31;100779.03;;;27.07;38.98
23619;BME280;18207;32.078;34.818;2024-02-26T10:55:05;100776.16;;;27.03;38.70
23619;BME280;18207;32.078;34.818;2024-02-26T10:57:40;100770.91;;;27.02;38.82
23619;BME280;18207;32.078;34.818;2024-02-26T11:00:15;100773.25;;;27.00;38.78
23619;BME280;18207;32.078;34.818;2024-02-26T11:02:46;100761.50;;;26.98;38.83
23619;BME280;18207;32.078;34.818;2024-02-26T11:05:19;100766.75;;;26.96;38.94
23619;BME280;18207;32.078;34.818;2024-02-26T11:07:52;100773.56;;;26.95;38.76
23619;BME280;18207;32.078;34.818;2024-02-26T11:10:24;100765.47;;;26.93;38.72
23619;BME280;18207;32.078;34.818;2024-02-26T11:12:56;100766.25;;;26.90;38.79
23619;BME280;18207;32.078;34.818;2024-02-26T11:15:30;100763.00;;;26.88;38.59
23619;BME280;18207;32.078;34.818;2024-02-26T11:18:03;100765.38;;;26.86;38.40
23619;BME280;18207;32.078;34.818;2024-02-26T11:20:34;100753.63;;;26.84;38.66
23619;BME280;18207;32.078;34.818;2024-02-26T11:23:08;100754.81;;;26.83;38.73
23619;BME280;18207;32.078;34.818;2024-02-26T11:25:40;100756.84;;;26.83;38.74
23619;BME280;18207;32.078;34.818;2024-02-26T11:28:14;100753.59;;;26.81;38.25
23619;BME280;18207;32.078;34.818;2024-02-26T11:30:48;100756.41;;;26.81;38.26
23619;BME280;18207;32.078;34.818;2024-02-26T11:33:19;100757.59;;;26.80;38.81
23619;BME280;18207;32.078;34.818;2024-02-26T11:35:49;100759.16;;;26.78;38.57
23619;BME280;18207;32.078;34.818;2024-02-26T11:38:22;100745.06;;;26.78;38.60
23619;BME280;18207;32.078;34.818;2024-02-26T11:40:55;100747.91;;;26.78;38.33
23619;BME280;18207;32.078;34.818;2024-02-26T11:43:50;100742.25;;;26.78;38.43
23619;BME280;18207;32.078;34.818;2024-02-26T11:46:28;100743.84;;;26.75;38.56
23619;BME280;18207;32.078;34.818;2024-02-26T11:49:31;100740.19;;;26.75;38.43
23619;BME280;18207;32.078;34.818;2024-02-26T11:52:05;100738.94;;;26.72;38.41
23619;BME280;18207;32.078;34.818;2024-02-26T11:54:47;100741.75;;;26.72;38.27
23619;BME280;18207;32.078;34.818;2024-02-26T11:57:27;100727.66;;;26.72;38.46
23619;BME280;18207;32.078;34.818;2024-02-26T12:00:12;100730.88;;;26.71;38.13
23619;BME280;18207;32.078;34.818;2024-02-26T12:02:45;100723.59;;;26.70;38.22
23619;BME280;18207;32.078;34.818;2024-02-26T12:05:17;100723.59;;;26.70;38.09
23619;BME280;18207;32.078;34.818;2024-02-26T12:07:52;100717.13;;;26.69;38.10
23619;BME280;18207;32.078;34.818;2024-02-26T12:10:28;100719.94;;;26.69;38.01
23619;BME280;18207;32.078;34.818;2024-02-26T12:13:06;100709.06;;;26.68;38.06
23619;BME280;18207;32.078;34.818;2024-02-26T12:15:39;100711.06;;;26.67;38.01
23619;BME280;18207;32.078;34.818;2024-02-26T12:18:10;100721.13;;;26.68;37.87
23619;BME280;18207;32.078;34.818;2024-02-26T12:20:45;100715.88;;;26.67;37.92
23619;BME280;18207;32.078;34.818;2024-02-26T12:23:16;100714.25;;;26.66;37.74
23619;BME280;18207;32.078;34.818;2024-02-26T12:25:46;100714.63;;;26.64;37.83
23619;BME280;18207;32.078;34.818;2024-02-26T12:28:18;100717.47;;;26.64;37.31
23619;BME280;18207;32.078;34.818;2024-02-26T12:30:48;100706.56;;;26.63;37.42
23619;BME280;18207;32.078;34.818;2024-02-26T12:33:18;100704.94;;;26.62;37.37
23619;BME280;18207;32.078;34.818;2024-02-26T12:35:49;100708.13;;;26.60;37.22
23619;BME280;18207;32.078;34.818;2024-02-26T12:38:20;100705.69;;;26.59;37.30
23619;BME280;18207;32.078;34.818;2024-02-26T12:40:50;100705.25;;;26.57;36.95
23619;BME280;18207;32.078;34.818;2024-02-26T12:43:22;100700.00;;;26.55;36.75
23619;BME280;18207;32.078;34.818;2024-02-26T12:45:52;100697.91;;;26.52;36.81
23619;BME280;18207;32.078;34.818;2024-02-26T12:48:22;100706.75;;;26.51;36.99
23619;BME280;18207;32.078;34.818;2024-02-26T12:50:52;100692.22;;;26.49;36.67
23619;BME280;18207;32.078;34.818;2024-02-26T12:53:22;100687.78;;;26.48;36.92
23619;BME280;18207;32.078;34.818;2024-02-26T12:55:52;100692.16;;;26.45;36.93
23619;BME280;18207;32.078;34.818;2024-02-26T12:58:24;100687.72;;;26.44;36.46
23619;BME280;18207;32.078;34.818;2024-02-26T13:00:56;100681.63;;;26.42;36.56